Fulton, Michigan
Current Conditions -  °F | °C
As of 11:15 PM on Monday 22 Dec 2014 (Local Time) from KAZO Reporting Station
Haze Haze  
Wind Chill: 30°   Ceiling: 4600
Heat Index: 37°   Visibility: 4mi
Dew Point: 34°   Wind: 10mph
Humidity: 89%   Direction: 110°ESE
Pressure: 29.75"   Gusts: NA
Location:  42.11°N, 85.35°W
Report Text: KAZO 230415Z AUTO 11009KT 4SM BR SCT031 OVC046 03/01 A2975 RMK AO2 RAE11 P0000 T00280011
Loading
Personal Weather Stations






























Interactive Weather Map New forecast layout! Learn more

10-Day Weather Forecast

Advertisements
Track Severe Weather on mobile